Sedgwick Reserve, California Weather observations

Data are for 10 minute period ending at time listed.
 Day   Time   Solar   Ave.   Ave.  Ave.  Vector  Max.   Baro.   Total    
  of    of     Rad.   Air    Rel.  Wind   Wind   Wind  Press.  Precip.   
Year   Day            Temp.  Hum.  Speed  Dir.   Gust                    
2026   (PST)  Kw/m2    F      %     mph   deg.    mph    mb.     in.     
-------------------------------------------------------------------------
 126    0:00   0.00   49.0    94    2.6     6     3.2   977.4    0.00 
 126    0:10   0.00   49.1    94    1.8    17     2.8   977.3    0.00 
 126    0:20   0.00   49.4    94    2.0     4     3.3   977.3    0.00 
 126    0:30   0.00   50.0    94    1.0   294     3.3   977.3    0.00 
 126    0:40   0.00   50.3    94    1.3   283     2.6   977.3    0.00 
 126    0:50   0.00   50.2    93    1.2    22     2.1   977.3    0.00 
 126    1:00   0.00   50.4    93    1.3    39     2.4   977.2    0.00 
 126    1:10   0.00   50.7    93    2.0   113     4.2   977.1    0.00 
 126    1:20   0.00   51.1    93    3.5   152     6.6   977.1    0.00 
 126    1:30   0.00   51.5    92    3.0   148     6.0   977.0    0.00 
 126    1:40   0.00   51.5    92    3.6   169     5.3   977.0    0.00 
 126    1:50   0.00   51.5    91    3.2   155     5.3   977.0    0.00 
 126    2:00   0.00   51.4    92    3.4   158     6.7   977.0    0.00 
 126    2:10   0.00   51.4    92    1.5   110     3.1   977.0    0.00 
 126    2:20   0.00   51.3    92    3.4   126     6.4   977.0    0.00 
 126    2:30   0.00   51.3    92    2.8   105     4.7   977.1    0.00 
 126    2:40   0.00   51.3    92    2.8   103     4.7   977.1    0.00 
 126    2:50   0.00   51.4    92    0.5   178     3.0   977.2    0.00 
 126    3:00   0.00   51.5    91    1.3    82     3.5   977.2    0.00 
 126    3:10   0.00   51.4    91    2.9    81     4.8   977.1    0.00 
 126    3:20   0.00   51.2    91    3.7    97     6.1   977.0    0.00 
 126    3:30   0.00   50.6    92    2.4    81     4.5   977.1    0.00 
 126    3:40   0.00   50.5    92    2.5    78     4.7   977.1    0.00 
 126    3:50   0.00   50.3    92    2.1    90     4.2   977.1    0.00 
 126    4:00   0.00   50.3    92    2.0    70     3.2   977.0    0.00 
 126    4:10   0.00   50.3    93    1.7    74     3.4   977.0    0.00 
 126    4:20   0.00   50.3    93    2.6    87     4.9   976.9    0.00 
 126    4:30   0.00   50.1    93    2.5    98     4.9   976.9    0.00 
 126    4:40   0.00   50.0    93    2.7   107     4.6   976.9    0.00 
 126    4:50   0.00   49.9    93    1.0    78     3.0   976.9    0.00 
 126    5:00   0.00   49.4    94    1.4     7     2.3   977.0    0.00 
 126    5:10   0.00   49.3    94    1.7   339     2.7   977.0    0.00 
 126    5:20   0.01   49.1    94    2.0   326     4.0   977.1    0.00 
 126    5:30   0.01   49.3    94    1.5     2     4.2   977.2    0.00 
 126    5:40   0.02   49.1    94    3.1    12     5.3   977.3    0.00 
 126    5:50   0.04   49.0    95    2.9    28     4.5   977.3    0.00 
 126    6:00   0.08   48.9    95    2.6    30     5.0   977.3    0.00 
 126    6:10   0.13   49.2    96    2.5    31     3.9   977.4    0.00 
 126    6:20   0.17   49.8    95    3.8    25     6.2   977.4    0.00 
 126    6:30   0.21   50.7    93    3.9    31     6.3   977.5    0.00 
 126    6:40   0.24   52.2    90    2.8    34     5.6   977.6    0.00 
 126    6:50   0.27   54.2    85    2.1    47     4.0   977.6    0.00 
 126    7:00   0.31   55.3    81    1.4    73     2.7   977.6    0.00 
 126    7:10   0.34   56.0    78    1.7   148     4.0   977.7    0.00 
 126    7:20   0.38   56.9    76    1.5   158     3.6   977.6    0.00 
 126    7:30   0.41   57.7    74    0.6   286     2.0   977.6    0.00 
 126    7:40   0.45   58.7    72    2.0   250     4.5   977.6    0.00 
 126    7:50   0.48   59.1    70    3.4   173     6.7   977.5    0.00 
 126    8:00   0.51   60.0    68    2.0   245     4.6   977.5    0.00 
 126    8:10   0.54   61.2    66    2.6   193     7.1   977.5    0.00 
 126    8:20   0.57   62.2    64    3.7   204     7.5   977.5    0.00 
 126    8:30   0.60   62.3    64    4.1   182     7.7   977.4    0.00 
 126    8:40   0.63   63.0    62    3.4   239     6.9   977.4    0.00 
 126    8:50   0.66   63.0    62    3.7   215     7.5   977.5    0.00 
 126    9:00   0.68   64.3    59    4.9   273     7.9   977.6    0.00 
 126    9:10   0.71   64.2    59    4.0   273     8.3   977.7    0.00 
 126    9:20   0.73   64.8    58    2.3   271     5.8   977.7    0.00 
 126    9:30   0.76   65.6    55    5.6   254    11.3   977.5    0.00 
 126    9:40   0.78   66.3    54    4.8   244    10.7   977.5    0.00 
 126    9:50   0.80   67.1    53    5.8   203     9.7   977.5    0.00 
 126   10:00   0.82   67.9    52    5.2   227    11.3   977.5    0.00 
 126   10:10   0.84   68.5    52    5.5   266     9.1   977.5    0.00 
 126   10:20   0.85   69.3    52    6.4   272    11.5   977.5    0.00 
 126   10:30   0.87   69.6    52    6.4   260    11.7   977.3    0.00 
 126   10:40   0.88   70.4    51    6.6   269    11.3   977.3    0.00 
 126   10:50   0.89   70.8    51    7.8   262    14.5   977.2    0.00 
 126   11:00   0.90   71.3    50    5.6   256    12.2   977.0    0.00 
 126   11:10   0.91   72.3    49    8.3   280    12.9   976.8    0.00 
 126   11:20   0.92   73.6    47    6.8   273    11.6   976.7    0.00 
 126   11:30   0.90   74.6    46    8.2   273    13.9   976.6    0.00 
 126   11:40   0.93   74.2    46   11.0   267    17.5   976.3    0.00 
 126   11:50   0.93   74.4    46    8.4   251    13.4   976.2    0.00 
 126   12:00   0.93   75.5    45    9.3   257    17.6   976.2    0.00 
 126   12:10   0.93   76.5    45   10.3   280    17.2   976.2    0.00 
 126   12:20   0.93   75.8    46   11.0   277    16.5   976.1    0.00 
 126   12:30   0.93   75.8    46   11.4   276    17.2   976.1    0.00 
 126   12:40   0.92   77.4    44    8.4   288    18.6   976.1    0.00 
 126   12:50   0.92   76.2    45   10.6   284    18.2   976.0    0.00 
 126   13:00   0.91   76.6    45   10.5   295    19.6   976.1    0.00 
 126   13:10   0.90   76.6    45    9.3   293    16.2   976.1    0.00 
 126   13:20   0.89   75.4    47   11.6   275    19.9   976.1    0.00 

Return to Sedgwick Reserve graphs page.


Western Regional Climate Center,wrcc@dri.edu